»·PEaware :: DAL7648 KSEA-KLAX

DAL7648 :: KSEA-KLAX

FLIGHT INFORMATION

Flight Status: Arrived
Operator:
Delta Air Lines
More flights by this operator :: More flights under this callsign
Pilot: Skye D. (10623)
Aircraft: Unknown
(B77L)
More flights by this aircraft type
Origin: KSEA Seattle-Tacoma Intl
United States
Destination: KLAX Los Angeles Intl
United States
More flights between these airports :: More routes between these airports
Route: +SUMMA1 LKV FRA REBRG IRNMN1
File this flight plan on PilotEdge
Remarks:
Altitude:
(Current/Filed)
39,000ft
Speed:
(Current/Filed)
466kts
Departed: 17-Feb-18 02:58 PM
Arrived: 17-Feb-18 05:07 PM
Distance/Time
Traveled:
829nm/2:09
Distance/Time
To Go:
Arrived

Flight Plot

Page will automatically refresh every two minutes.

Flight plan parsing failed; only flown route is shown


Map Options




Map Legend


Flown Route
Filed Route
Departure Airport
Arrival Airport
Navaid (VOR, NDB)
Fix

Horizontal Profiles

Position Reports

Time Latitude Longitude Heading Altitude Ground
Speed
17-Feb-18 14:37 47.444991 -122.302373 160 451ft 0kts
17-Feb-18 14:38 47.444991 -122.302373 160 451ft 0kts
17-Feb-18 14:39 47.444991 -122.302373 160 450ft 0kts
17-Feb-18 14:40 47.444991 -122.302373 160 450ft 0kts
17-Feb-18 14:41 47.444991 -122.302373 160 450ft 0kts
17-Feb-18 14:42 47.444991 -122.302373 160 450ft 0kts
17-Feb-18 14:43 47.444991 -122.302373 160 450ft 0kts
17-Feb-18 14:44 47.444991 -122.302373 160 450ft 0kts
17-Feb-18 14:45 47.444991 -122.302373 160 450ft 0kts
17-Feb-18 14:46 47.444991 -122.302373 160 450ft 0kts
17-Feb-18 14:47 47.444991 -122.302373 160 450ft 0kts
17-Feb-18 14:48 47.444991 -122.302373 160 450ft 0kts
17-Feb-18 14:49 47.444991 -122.302373 160 450ft 0kts
17-Feb-18 14:50 47.445230 -122.302582 127 450ft 2kts
17-Feb-18 14:51 47.445279 -122.302592 97 450ft 2kts
17-Feb-18 14:52 47.445883 -122.302111 21 450ft 2kts
17-Feb-18 14:53 47.445976 -122.302054 21 450ft 0kts
17-Feb-18 14:54 47.446010 -122.302030 21 450ft 0kts
17-Feb-18 14:55 47.446114 -122.301971 20 450ft 0kts
17-Feb-18 14:56 47.446114 -122.301971 20 450ft 0kts
17-Feb-18 14:57 47.447145 -122.303268 305 450ft 9kts
17-Feb-18 14:58 47.448018 -122.305242 285 450ft 0kts
17-Feb-18 14:59 47.449017 -122.306091 21 450ft 9kts
17-Feb-18 15:00 47.451344 -122.306208 355 450ft 17kts
17-Feb-18 15:01 47.456270 -122.306176 0 450ft 29kts
17-Feb-18 15:02 47.462230 -122.306251 358 450ft 9kts
17-Feb-18 15:03 47.463574 -122.306297 326 450ft 0kts
17-Feb-18 15:04 47.463222 -122.307723 186 450ft 8kts
17-Feb-18 15:05 47.446699 -122.308027 187 817ft 147kts
17-Feb-18 15:06 47.410963 -122.312549 206 3332ft 159kts
17-Feb-18 15:07 47.367618 -122.318513 189 5009ft 221kts
17-Feb-18 15:08 47.309241 -122.314602 186 7402ft 257kts
17-Feb-18 15:09 47.251574 -122.309033 181 9779ft 281kts
17-Feb-18 15:10 47.187483 -122.273421 170 11786ft 336kts
17-Feb-18 15:11 47.113391 -122.235391 173 14737ft 351kts
17-Feb-18 15:12 47.023959 -122.190775 174 17623ft 375kts
17-Feb-18 15:13 46.926196 -122.141976 175 20445ft 398kts
17-Feb-18 15:14 46.820481 -122.089280 176 23282ft 421kts
17-Feb-18 15:15 46.710659 -122.034522 177 25800ft 443kts
17-Feb-18 15:16 46.595364 -121.976017 178 28235ft 461kts
17-Feb-18 15:17 46.539552 -121.956538 184 29275ft 454kts
17-Feb-18 15:18 46.352653 -121.886456 181 32830ft 485kts
17-Feb-18 15:19 46.221792 -121.836463 181 35916ft 482kts
17-Feb-18 15:20 46.092689 -121.787418 180 38330ft 484kts
17-Feb-18 15:21 45.964536 -121.739141 179 38795ft 496kts
17-Feb-18 15:22 45.841477 -121.692693 179 38776ft 494kts
17-Feb-18 15:23 45.715342 -121.645504 178 38779ft 494kts
17-Feb-18 15:24 45.583124 -121.596215 178 38780ft 494kts
17-Feb-18 15:25 45.450415 -121.546991 178 38781ft 493kts
17-Feb-18 15:26 45.318289 -121.498236 178 38782ft 493kts
17-Feb-18 15:27 45.187092 -121.450223 176 38723ft 492kts
17-Feb-18 15:28 45.060018 -121.403636 176 38874ft 492kts
17-Feb-18 15:29 44.930201 -121.356392 176 39148ft 493kts
17-Feb-18 15:30 44.800329 -121.308610 177 39392ft 492kts
17-Feb-18 15:31 44.669567 -121.261545 175 39396ft 489kts
17-Feb-18 15:32 44.538934 -121.214503 176 39399ft 488kts
17-Feb-18 15:33 44.408257 -121.167852 176 39357ft 488kts
17-Feb-18 15:34 44.277358 -121.121316 176 39083ft 487kts
17-Feb-18 15:35 44.146464 -121.075067 175 38820ft 485kts
17-Feb-18 15:36 44.016123 -121.029105 175 38835ft 485kts
17-Feb-18 15:37 43.886705 -120.983722 175 38835ft 485kts
17-Feb-18 15:38 43.756297 -120.938202 175 38835ft 485kts
17-Feb-18 15:39 43.625438 -120.892779 173 38835ft 486kts
17-Feb-18 15:40 43.494665 -120.847493 173 38837ft 486kts
17-Feb-18 15:41 43.364160 -120.802544 173 38838ft 486kts
17-Feb-18 15:42 43.233460 -120.757741 173 38837ft 487kts
17-Feb-18 15:43 43.102705 -120.713093 173 38893ft 488kts
17-Feb-18 15:44 42.971404 -120.668473 173 39068ft 490kts
17-Feb-18 15:45 42.840673 -120.624233 173 39067ft 489kts
17-Feb-18 15:46 42.710802 -120.580551 172 39069ft 488kts
17-Feb-18 15:47 42.581424 -120.537083 172 39069ft 487kts
17-Feb-18 15:48 42.450226 -120.498692 180 39077ft 479kts
17-Feb-18 15:49 42.318409 -120.475550 179 39070ft 481kts
17-Feb-18 15:50 42.186807 -120.451759 178 39069ft 479kts
17-Feb-18 15:51 42.055368 -120.427856 178 39071ft 480kts
17-Feb-18 15:52 41.925841 -120.404492 178 39071ft 479kts
17-Feb-18 15:53 41.795084 -120.381006 178 39050ft 479kts
17-Feb-18 15:54 41.664206 -120.357616 177 39051ft 480kts
17-Feb-18 15:55 41.534087 -120.333825 178 39042ft 479kts
17-Feb-18 15:56 41.402813 -120.310406 178 39042ft 479kts
17-Feb-18 15:57 41.271690 -120.287255 178 39056ft 487kts
17-Feb-18 15:58 41.133553 -120.262925 178 39041ft 504kts
17-Feb-18 15:59 40.994946 -120.238625 178 39044ft 503kts
17-Feb-18 16:00 40.860109 -120.215109 178 39069ft 504kts
17-Feb-18 16:01 40.721422 -120.191032 178 39070ft 503kts
17-Feb-18 16:02 40.583541 -120.167162 177 39071ft 503kts
17-Feb-18 16:03 40.444678 -120.143235 178 39071ft 503kts
17-Feb-18 16:04 40.306390 -120.119508 177 39072ft 503kts
17-Feb-18 16:05 40.168339 -120.095931 177 39073ft 504kts
17-Feb-18 16:06 40.029701 -120.072327 177 39078ft 503kts
17-Feb-18 16:07 39.896446 -120.049741 177 39128ft 504kts
17-Feb-18 16:08 39.759402 -120.026607 177 39127ft 504kts
17-Feb-18 16:09 39.621368 -120.003373 178 39127ft 505kts
17-Feb-18 16:10 39.488517 -119.981148 178 39072ft 505kts
17-Feb-18 16:11 39.352145 -119.958400 178 39165ft 506kts
17-Feb-18 16:12 39.213366 -119.935356 178 39152ft 504kts
17-Feb-18 16:13 39.075112 -119.912457 178 39121ft 503kts
17-Feb-18 16:14 38.936765 -119.889646 178 39103ft 503kts
17-Feb-18 16:15 38.799182 -119.867054 178 39155ft 503kts
17-Feb-18 16:16 38.662181 -119.844670 177 39156ft 501kts
17-Feb-18 16:17 38.525705 -119.822406 177 39147ft 501kts
17-Feb-18 16:18 38.388917 -119.800200 177 39148ft 501kts
17-Feb-18 16:19 38.252560 -119.778149 177 39149ft 501kts
17-Feb-18 16:20 38.116728 -119.756283 177 39149ft 500kts
17-Feb-18 16:21 37.979661 -119.734260 177 39149ft 499kts
17-Feb-18 16:22 37.845699 -119.712845 177 39148ft 499kts
17-Feb-18 16:23 37.709222 -119.691179 176 39166ft 498kts
17-Feb-18 16:24 37.573373 -119.669547 176 39130ft 497kts
17-Feb-18 16:25 37.437377 -119.648033 176 39130ft 498kts
17-Feb-18 16:26 37.300732 -119.626501 176 39131ft 498kts
17-Feb-18 16:27 37.164084 -119.605155 175 39129ft 494kts
17-Feb-18 16:28 37.027781 -119.597268 183 39131ft 492kts
17-Feb-18 16:29 36.893079 -119.599393 183 39130ft 491kts
17-Feb-18 16:30 36.757449 -119.601721 183 39130ft 491kts
17-Feb-18 16:31 36.621368 -119.604093 182 39129ft 490kts
17-Feb-18 16:32 36.494392 -119.606242 182 39129ft 490kts
17-Feb-18 16:33 36.358375 -119.608564 182 39129ft 490kts
17-Feb-18 16:34 36.222290 -119.610906 182 39129ft 491kts
17-Feb-18 16:35 36.086168 -119.613199 182 39129ft 491kts
17-Feb-18 16:36 35.952790 -119.626259 197 39135ft 487kts
17-Feb-18 16:37 35.831264 -119.671450 198 39101ft 487kts
17-Feb-18 16:38 35.702600 -119.719631 197 39100ft 489kts
17-Feb-18 16:39 35.570982 -119.756078 191 38649ft 490kts
17-Feb-18 16:40 35.443551 -119.787005 191 37650ft 478kts
17-Feb-18 16:41 35.314429 -119.804218 173 36765ft 482kts
17-Feb-18 16:42 35.194484 -119.741998 139 35076ft 484kts
17-Feb-18 16:43 35.090303 -119.639377 142 32579ft 489kts
17-Feb-18 16:44 34.985520 -119.541779 142 30280ft 481kts
17-Feb-18 16:45 34.912050 -119.473796 142 28577ft 447kts
17-Feb-18 16:46 34.816789 -119.388496 142 26813ft 426kts
17-Feb-18 16:47 34.723236 -119.305076 143 24924ft 414kts
17-Feb-18 16:48 34.631472 -119.225036 142 23060ft 397kts
17-Feb-18 16:49 34.543966 -119.149049 142 21173ft 381kts
17-Feb-18 16:50 34.460130 -119.074893 142 19510ft 370kts
17-Feb-18 16:51 34.377877 -119.003358 143 17793ft 361kts
17-Feb-18 16:52 34.299327 -118.933570 143 16129ft 350kts
17-Feb-18 16:53 34.225551 -118.866324 143 14543ft 310kts
17-Feb-18 16:54 34.159202 -118.804774 138 13100ft 293kts
17-Feb-18 16:55 34.100079 -118.740248 137 11862ft 284kts
17-Feb-18 16:56 34.041449 -118.678842 132 10825ft 281kts
17-Feb-18 16:57 34.023030 -118.592750 97 9234ft 274kts
17-Feb-18 16:58 34.015186 -118.511303 97 7978ft 269kts
17-Feb-18 16:59 34.013276 -118.442052 80 6996ft 238kts
17-Feb-18 17:00 34.022553 -118.374900 81 5653ft 246kts
17-Feb-18 17:01 34.031480 -118.308264 81 5006ft 229kts
17-Feb-18 17:02 34.039818 -118.243546 81 4990ft 229kts
17-Feb-18 17:03 34.048366 -118.177577 81 4981ft 229kts
17-Feb-18 17:04 34.057092 -118.110365 81 4981ft 229kts
17-Feb-18 17:05 34.038962 -118.059703 181 4980ft 200kts
17-Feb-18 17:06 33.999009 -118.065925 220 4973ft 198kts
17-Feb-18 17:07 33.980400 -118.126951 260 4649ft 191kts
17-Feb-18 17:08 33.975341 -118.174132 261 3899ft 187kts
17-Feb-18 17:09 33.969502 -118.230872 262 2967ft 182kts
17-Feb-18 17:10 33.964555 -118.279630 262 2151ft 158kts
17-Feb-18 17:11 33.959371 -118.330656 263 1319ft 143kts
17-Feb-18 17:12 33.955910 -118.363730 263 803ft 145kts
17-Feb-18 17:13 33.951517 -118.407908 262 143ft 129kts
17-Feb-18 17:14 33.949786 -118.423745 261 142ft 23kts
17-Feb-18 17:15 33.947780 -118.427449 211 142ft 13kts
17-Feb-18 17:16 33.946508 -118.425263 80 142ft 20kts
17-Feb-18 17:17 33.947115 -118.419134 82 142ft 20kts
17-Feb-18 17:18 33.947800 -118.413501 74 142ft 13kts
17-Feb-18 17:19 33.945233 -118.412572 171 142ft 11kts
17-Feb-18 17:20 33.944633 -118.411363 82 142ft 0kts
17-Feb-18 17:21 33.944633 -118.411362 82 142ft 0kts
17-Feb-18 17:22 33.944633 -118.411362 82 143ft 0kts

Navigation Log

Ident Type
Flight plan parsing failed, navigation log unavailable